sensor_id;sensor_type;location;lat;lon;timestamp;P1;durP1;ratioP1;P2;durP2;ratioP2
12812;SDS011;6471;50.932;6.934;2022-09-09T01:42:36;1.37;;;0.87;;
12812;SDS011;6471;50.932;6.934;2022-09-09T05:16:21;3.30;;;1.20;;
12812;SDS011;6471;50.932;6.934;2022-09-09T05:21:55;1.97;;;1.20;;
12812;SDS011;6471;50.932;6.934;2022-09-09T05:43:02;2.17;;;1.50;;
12812;SDS011;6471;50.932;6.934;2022-09-09T05:45:28;2.37;;;1.30;;
12812;SDS011;6471;50.932;6.934;2022-09-09T05:47:54;1.53;;;1.17;;
12812;SDS011;6471;50.932;6.934;2022-09-09T05:50:21;3.37;;;1.30;;
12812;SDS011;6471;50.932;6.934;2022-09-09T05:52:47;2.78;;;1.52;;
12812;SDS011;6471;50.932;6.934;2022-09-09T05:55:14;3.17;;;1.43;;
12812;SDS011;6471;50.932;6.934;2022-09-09T05:57:40;3.00;;;1.37;;
12812;SDS011;6471;50.932;6.934;2022-09-09T06:00:07;2.47;;;1.30;;
12812;SDS011;6471;50.932;6.934;2022-09-09T06:02:33;3.40;;;1.10;;
12812;SDS011;6471;50.932;6.934;2022-09-09T06:05:02;3.30;;;1.47;;
12812;SDS011;6471;50.932;6.934;2022-09-09T06:07:28;1.97;;;1.30;;
12812;SDS011;6471;50.932;6.934;2022-09-09T06:09:54;4.13;;;1.30;;
12812;SDS011;6471;50.932;6.934;2022-09-09T06:12:21;4.20;;;1.83;;
12812;SDS011;6471;50.932;6.934;2022-09-09T06:14:47;2.37;;;1.40;;
12812;SDS011;6471;50.932;6.934;2022-09-09T06:17:13;2.17;;;1.30;;
12812;SDS011;6471;50.932;6.934;2022-09-09T06:19:39;3.40;;;1.37;;
12812;SDS011;6471;50.932;6.934;2022-09-09T06:22:05;2.40;;;1.30;;
12812;SDS011;6471;50.932;6.934;2022-09-09T06:24:31;4.33;;;1.50;;
12812;SDS011;6471;50.932;6.934;2022-09-09T06:26:57;4.43;;;1.30;;
12812;SDS011;6471;50.932;6.934;2022-09-09T06:29:24;2.77;;;1.50;;
12812;SDS011;6471;50.932;6.934;2022-09-09T06:31:50;3.43;;;1.20;;
12812;SDS011;6471;50.932;6.934;2022-09-09T06:34:16;3.87;;;1.40;;
12812;SDS011;6471;50.932;6.934;2022-09-09T06:36:42;3.00;;;1.30;;
12812;SDS011;6471;50.932;6.934;2022-09-09T06:39:10;3.13;;;1.40;;
12812;SDS011;6471;50.932;6.934;2022-09-09T06:41:37;2.83;;;1.53;;
12812;SDS011;6471;50.932;6.934;2022-09-09T06:44:03;2.67;;;1.77;;
12812;SDS011;6471;50.932;6.934;2022-09-09T06:46:30;3.37;;;1.37;;
12812;SDS011;6471;50.932;6.934;2022-09-09T06:48:58;3.07;;;1.50;;
12812;SDS011;6471;50.932;6.934;2022-09-09T06:51:28;3.80;;;1.60;;
12812;SDS011;6471;50.932;6.934;2022-09-09T06:53:55;4.60;;;1.60;;
12812;SDS011;6471;50.932;6.934;2022-09-09T06:56:29;3.97;;;1.50;;
12812;SDS011;6471;50.932;6.934;2022-09-09T06:58:56;2.83;;;1.50;;
12812;SDS011;6471;50.932;6.934;2022-09-09T07:01:27;2.60;;;1.47;;
12812;SDS011;6471;50.932;6.934;2022-09-09T07:03:55;4.03;;;1.70;;
12812;SDS011;6471;50.932;6.934;2022-09-09T07:06:32;3.90;;;1.77;;
12812;SDS011;6471;50.932;6.934;2022-09-09T07:09:03;4.53;;;1.50;;
12812;SDS011;6471;50.932;6.934;2022-09-09T07:11:34;4.63;;;1.60;;
12812;SDS011;6471;50.932;6.934;2022-09-09T07:14:03;6.03;;;1.90;;
12812;SDS011;6471;50.932;6.934;2022-09-09T07:16:29;3.77;;;1.60;;
12812;SDS011;6471;50.932;6.934;2022-09-09T07:19:00;4.90;;;1.70;;
12812;SDS011;6471;50.932;6.934;2022-09-09T07:21:28;3.63;;;1.50;;
12812;SDS011;6471;50.932;6.934;2022-09-09T07:23:54;4.30;;;1.50;;
12812;SDS011;6471;50.932;6.934;2022-09-09T07:26:21;3.73;;;1.40;;
12812;SDS011;6471;50.932;6.934;2022-09-09T07:28:47;3.30;;;1.50;;
12812;SDS011;6471;50.932;6.934;2022-09-09T07:31:14;3.87;;;1.57;;
12812;SDS011;6471;50.932;6.934;2022-09-09T07:33:41;4.03;;;1.53;;
12812;SDS011;6471;50.932;6.934;2022-09-09T07:36:09;4.43;;;1.50;;
12812;SDS011;6471;50.932;6.934;2022-09-09T07:38:42;5.03;;;1.70;;
12812;SDS011;6471;50.932;6.934;2022-09-09T07:41:10;3.40;;;1.50;;
12812;SDS011;6471;50.932;6.934;2022-09-09T07:43:40;3.50;;;1.30;;
12812;SDS011;6471;50.932;6.934;2022-09-09T07:46:07;5.57;;;1.60;;
12812;SDS011;6471;50.932;6.934;2022-09-09T07:48:33;2.70;;;1.30;;
12812;SDS011;6471;50.932;6.934;2022-09-09T07:51:07;2.23;;;1.20;;
12812;SDS011;6471;50.932;6.934;2022-09-09T07:53:33;3.23;;;1.30;;
12812;SDS011;6471;50.932;6.934;2022-09-09T07:56:13;3.43;;;1.67;;
12812;SDS011;6471;50.932;6.934;2022-09-09T07:58:46;3.30;;;1.40;;
12812;SDS011;6471;50.932;6.934;2022-09-09T08:01:19;2.20;;;1.40;;
12812;SDS011;6471;50.932;6.934;2022-09-09T08:03:46;3.53;;;1.53;;
12812;SDS011;6471;50.932;6.934;2022-09-09T08:06:13;2.73;;;1.33;;
12812;SDS011;6471;50.932;6.934;2022-09-09T08:08:40;2.80;;;1.23;;
12812;SDS011;6471;50.932;6.934;2022-09-09T08:11:10;3.63;;;1.63;;
12812;SDS011;6471;50.932;6.934;2022-09-09T08:13:37;3.40;;;1.50;;
12812;SDS011;6471;50.932;6.934;2022-09-09T08:16:04;3.20;;;1.20;;
12812;SDS011;6471;50.932;6.934;2022-09-09T08:18:43;3.37;;;1.27;;
12812;SDS011;6471;50.932;6.934;2022-09-09T08:21:15;2.70;;;1.30;;
12812;SDS011;6471;50.932;6.934;2022-09-09T08:23:43;4.50;;;1.43;;
12812;SDS011;6471;50.932;6.934;2022-09-09T08:26:14;2.47;;;1.40;;
12812;SDS011;6471;50.932;6.934;2022-09-09T08:28:41;4.10;;;1.70;;
12812;SDS011;6471;50.932;6.934;2022-09-09T08:31:17;5.03;;;1.70;;
12812;SDS011;6471;50.932;6.934;2022-09-09T08:33:47;2.77;;;1.80;;
12812;SDS011;6471;50.932;6.934;2022-09-09T08:36:16;4.50;;;2.07;;
12812;SDS011;6471;50.932;6.934;2022-09-09T08:38:42;6.07;;;2.17;;
12812;SDS011;6471;50.932;6.934;2022-09-09T08:43:41;3.43;;;1.70;;
12812;SDS011;6471;50.932;6.934;2022-09-09T08:48:46;4.13;;;1.77;;
12812;SDS011;6471;50.932;6.934;2022-09-09T08:51:17;3.00;;;1.50;;
12812;SDS011;6471;50.932;6.934;2022-09-09T08:53:45;2.97;;;1.47;;
12812;SDS011;6471;50.932;6.934;2022-09-09T08:56:21;3.70;;;1.50;;
12812;SDS011;6471;50.932;6.934;2022-09-09T08:58:51;4.73;;;2.17;;
12812;SDS011;6471;50.932;6.934;2022-09-09T09:01:35;2.57;;;1.40;;
12812;SDS011;6471;50.932;6.934;2022-09-09T09:04:07;2.40;;;1.20;;
12812;SDS011;6471;50.932;6.934;2022-09-09T09:06:50;1.93;;;1.20;;
12812;SDS011;6471;50.932;6.934;2022-09-09T09:09:22;2.17;;;1.17;;
12812;SDS011;6471;50.932;6.934;2022-09-09T09:11:50;1.77;;;1.10;;
12812;SDS011;6471;50.932;6.934;2022-09-09T09:14:24;1.53;;;1.20;;
12812;SDS011;6471;50.932;6.934;2022-09-09T09:16:56;3.37;;;1.40;;
12812;SDS011;6471;50.932;6.934;2022-09-09T09:19:23;2.67;;;1.20;;
12812;SDS011;6471;50.932;6.934;2022-09-09T09:24:23;1.47;;;1.00;;
12812;SDS011;6471;50.932;6.934;2022-09-09T09:26:54;1.57;;;1.07;;
12812;SDS011;6471;50.932;6.934;2022-09-09T09:29:21;4.17;;;1.10;;
12812;SDS011;6471;50.932;6.934;2022-09-09T09:31:55;2.03;;;0.90;;
12812;SDS011;6471;50.932;6.934;2022-09-09T09:34:22;3.23;;;1.10;;
12812;SDS011;6471;50.932;6.934;2022-09-09T09:36:57;3.10;;;1.20;;
12812;SDS011;6471;50.932;6.934;2022-09-09T09:39:33;1.33;;;0.97;;
12812;SDS011;6471;50.932;6.934;2022-09-09T09:42:15;1.67;;;0.77;;
12812;SDS011;6471;50.932;6.934;2022-09-09T09:44:42;1.50;;;1.00;;
12812;SDS011;6471;50.932;6.934;2022-09-09T09:47:10;1.77;;;1.03;;
12812;SDS011;6471;50.932;6.934;2022-09-09T09:49:38;1.97;;;1.20;;
12812;SDS011;6471;50.932;6.934;2022-09-09T09:52:04;1.47;;;0.80;;
12812;SDS011;6471;50.932;6.934;2022-09-09T09:54:32;2.70;;;1.20;;
12812;SDS011;6471;50.932;6.934;2022-09-09T09:57:14;1.53;;;1.00;;
12812;SDS011;6471;50.932;6.934;2022-09-09T09:59:41;2.23;;;1.10;;
12812;SDS011;6471;50.932;6.934;2022-09-09T10:02:15;4.00;;;1.00;;
12812;SDS011;6471;50.932;6.934;2022-09-09T10:04:42;2.03;;;0.90;;
12812;SDS011;6471;50.932;6.934;2022-09-09T10:07:17;1.90;;;0.90;;
12812;SDS011;6471;50.932;6.934;2022-09-09T10:09:48;2.30;;;1.10;;
12812;SDS011;6471;50.932;6.934;2022-09-09T10:17:40;3.63;;;0.97;;
12812;SDS011;6471;50.932;6.934;2022-09-09T10:28:30;2.73;;;1.27;;
12812;SDS011;6471;50.932;6.934;2022-09-09T10:36:26;2.50;;;1.13;;
12812;SDS011;6471;50.932;6.934;2022-09-09T10:41:21;2.40;;;1.20;;
12812;SDS011;6471;50.932;6.934;2022-09-09T10:54:46;1.37;;;0.90;;
12812;SDS011;6471;50.932;6.934;2022-09-09T10:57:27;2.90;;;0.90;;
12812;SDS011;6471;50.932;6.934;2022-09-09T10:59:57;2.37;;;1.33;;
12812;SDS011;6471;50.932;6.934;2022-09-09T11:02:28;3.43;;;1.30;;
12812;SDS011;6471;50.932;6.934;2022-09-09T11:07:40;1.93;;;1.10;;
12812;SDS011;6471;50.932;6.934;2022-09-09T11:10:34;1.97;;;0.90;;
12812;SDS011;6471;50.932;6.934;2022-09-09T11:13:03;2.27;;;1.17;;
12812;SDS011;6471;50.932;6.934;2022-09-09T11:15:39;1.37;;;0.80;;
12812;SDS011;6471;50.932;6.934;2022-09-09T11:18:17;1.13;;;0.87;;
12812;SDS011;6471;50.932;6.934;2022-09-09T11:20:49;2.00;;;1.00;;
12812;SDS011;6471;50.932;6.934;2022-09-09T11:23:28;1.20;;;0.97;;
12812;SDS011;6471;50.932;6.934;2022-09-09T11:26:01;2.00;;;1.00;;
12812;SDS011;6471;50.932;6.934;2022-09-09T11:42:26;3.87;;;1.17;;
12812;SDS011;6471;50.932;6.934;2022-09-09T11:44:52;2.30;;;1.10;;
12812;SDS011;6471;50.932;6.934;2022-09-09T11:47:34;2.07;;;1.00;;
12812;SDS011;6471;50.932;6.934;2022-09-09T11:50:07;1.20;;;0.80;;
12812;SDS011;6471;50.932;6.934;2022-09-09T11:52:42;2.17;;;1.10;;
12812;SDS011;6471;50.932;6.934;2022-09-09T11:55:12;0.73;;;0.73;;
12812;SDS011;6471;50.932;6.934;2022-09-09T11:57:57;2.30;;;1.00;;
12812;SDS011;6471;50.932;6.934;2022-09-09T12:00:29;3.13;;;0.97;;
12812;SDS011;6471;50.932;6.934;2022-09-09T12:02:57;1.70;;;1.07;;
12812;SDS011;6471;50.932;6.934;2022-09-09T12:05:42;1.97;;;0.93;;
12812;SDS011;6471;50.932;6.934;2022-09-09T12:08:16;3.50;;;1.17;;
12812;SDS011;6471;50.932;6.934;2022-09-09T12:10:53;2.87;;;1.20;;
12812;SDS011;6471;50.932;6.934;2022-09-09T12:13:24;1.23;;;1.00;;
12812;SDS011;6471;50.932;6.934;2022-09-09T12:18:47;2.60;;;1.20;;
12812;SDS011;6471;50.932;6.934;2022-09-09T12:23:59;2.03;;;1.00;;
12812;SDS011;6471;50.932;6.934;2022-09-09T12:26:37;2.57;;;0.90;;
12812;SDS011;6471;50.932;6.934;2022-09-09T12:34:31;1.63;;;0.83;;
12812;SDS011;6471;50.932;6.934;2022-09-09T12:39:48;1.97;;;0.90;;
12812;SDS011;6471;50.932;6.934;2022-09-09T12:42:18;2.63;;;1.00;;
12812;SDS011;6471;50.932;6.934;2022-09-09T12:44:57;1.87;;;1.00;;
12812;SDS011;6471;50.932;6.934;2022-09-09T12:47:44;1.50;;;1.00;;
12812;SDS011;6471;50.932;6.934;2022-09-09T12:50:21;1.97;;;0.90;;
12812;SDS011;6471;50.932;6.934;2022-09-09T12:52:54;2.43;;;0.97;;
12812;SDS011;6471;50.932;6.934;2022-09-09T12:55:23;2.30;;;1.17;;
12812;SDS011;6471;50.932;6.934;2022-09-09T12:57:50;1.13;;;0.90;;
12812;SDS011;6471;50.932;6.934;2022-09-09T13:00:21;2.13;;;1.20;;
12812;SDS011;6471;50.932;6.934;2022-09-09T13:02:57;1.90;;;1.10;;
12812;SDS011;6471;50.932;6.934;2022-09-09T13:05:34;1.93;;;1.00;;
12812;SDS011;6471;50.932;6.934;2022-09-09T13:08:25;2.67;;;1.20;;
12812;SDS011;6471;50.932;6.934;2022-09-09T13:11:06;3.03;;;1.33;;
12812;SDS011;6471;50.932;6.934;2022-09-09T13:13:36;2.43;;;1.27;;
12812;SDS011;6471;50.932;6.934;2022-09-09T13:16:04;2.07;;;1.10;;
12812;SDS011;6471;50.932;6.934;2022-09-09T13:18:35;1.70;;;1.10;;
12812;SDS011;6471;50.932;6.934;2022-09-09T13:21:03;2.40;;;1.10;;
12812;SDS011;6471;50.932;6.934;2022-09-09T13:23:30;2.80;;;1.30;;
12812;SDS011;6471;50.932;6.934;2022-09-09T13:26:04;3.47;;;1.00;;
12812;SDS011;6471;50.932;6.934;2022-09-09T13:28:33;1.67;;;0.90;;
12812;SDS011;6471;50.932;6.934;2022-09-09T13:31:18;1.17;;;0.87;;
12812;SDS011;6471;50.932;6.934;2022-09-09T13:33:45;2.60;;;1.10;;
12812;SDS011;6471;50.932;6.934;2022-09-09T13:36:13;1.60;;;0.83;;
12812;SDS011;6471;50.932;6.934;2022-09-09T13:41:25;1.53;;;1.00;;
12812;SDS011;6471;50.932;6.934;2022-09-09T13:43:55;1.07;;;0.90;;
12812;SDS011;6471;50.932;6.934;2022-09-09T13:49:02;0.70;;;0.60;;
12812;SDS011;6471;50.932;6.934;2022-09-09T13:51:44;0.97;;;0.63;;
12812;SDS011;6471;50.932;6.934;2022-09-09T13:54:13;2.83;;;0.80;;
12812;SDS011;6471;50.932;6.934;2022-09-09T13:56:40;1.00;;;0.80;;
12812;SDS011;6471;50.932;6.934;2022-09-09T13:59:16;2.17;;;0.70;;
12812;SDS011;6471;50.932;6.934;2022-09-09T14:01:43;0.90;;;0.70;;
12812;SDS011;6471;50.932;6.934;2022-09-09T14:04:12;1.23;;;0.80;;
12812;SDS011;6471;50.932;6.934;2022-09-09T14:06:38;1.33;;;0.80;;
12812;SDS011;6471;50.932;6.934;2022-09-09T14:09:12;0.87;;;0.70;;
12812;SDS011;6471;50.932;6.934;2022-09-09T14:14:35;2.37;;;1.10;;
12812;SDS011;6471;50.932;6.934;2022-09-09T14:17:07;1.90;;;1.03;;
12812;SDS011;6471;50.932;6.934;2022-09-09T14:19:36;1.93;;;1.10;;
12812;SDS011;6471;50.932;6.934;2022-09-09T14:22:02;1.23;;;0.80;;
12812;SDS011;6471;50.932;6.934;2022-09-09T14:27:50;1.50;;;0.97;;
12812;SDS011;6471;50.932;6.934;2022-09-09T14:30:42;2.27;;;0.77;;
12812;SDS011;6471;50.932;6.934;2022-09-09T14:39:44;2.63;;;1.20;;
12812;SDS011;6471;50.932;6.934;2022-09-09T14:45:29;1.20;;;1.03;;
12812;SDS011;6471;50.932;6.934;2022-09-09T14:47:57;1.93;;;1.10;;
12812;SDS011;6471;50.932;6.934;2022-09-09T14:50:33;1.63;;;1.30;;
12812;SDS011;6471;50.932;6.934;2022-09-09T14:53:01;1.53;;;1.10;;
12812;SDS011;6471;50.932;6.934;2022-09-09T14:55:44;1.97;;;1.20;;
12812;SDS011;6471;50.932;6.934;2022-09-09T14:58:25;1.40;;;1.30;;
12812;SDS011;6471;50.932;6.934;2022-09-09T15:01:04;1.50;;;1.23;;
12812;SDS011;6471;50.932;6.934;2022-09-09T15:03:31;2.83;;;1.27;;
12812;SDS011;6471;50.932;6.934;2022-09-09T15:06:04;1.80;;;1.10;;
12812;SDS011;6471;50.932;6.934;2022-09-09T15:08:31;2.87;;;1.30;;
12812;SDS011;6471;50.932;6.934;2022-09-09T15:11:02;1.10;;;0.97;;
12812;SDS011;6471;50.932;6.934;2022-09-09T15:13:42;1.20;;;0.83;;
12812;SDS011;6471;50.932;6.934;2022-09-09T15:16:11;0.90;;;0.70;;
12812;SDS011;6471;50.932;6.934;2022-09-09T15:18:42;1.07;;;0.93;;
12812;SDS011;6471;50.932;6.934;2022-09-09T15:21:18;1.13;;;1.00;;
12812;SDS011;6471;50.932;6.934;2022-09-09T15:23:48;2.17;;;0.90;;
12812;SDS011;6471;50.932;6.934;2022-09-09T15:26:16;1.33;;;0.93;;
12812;SDS011;6471;50.932;6.934;2022-09-09T15:28:43;1.00;;;0.90;;
12812;SDS011;6471;50.932;6.934;2022-09-09T15:31:15;1.10;;;0.90;;
12812;SDS011;6471;50.932;6.934;2022-09-09T15:33:48;2.20;;;1.10;;
12812;SDS011;6471;50.932;6.934;2022-09-09T15:36:21;1.40;;;1.03;;
12812;SDS011;6471;50.932;6.934;2022-09-09T15:38:50;1.63;;;1.00;;
12812;SDS011;6471;50.932;6.934;2022-09-09T15:41:17;2.90;;;1.40;;
12812;SDS011;6471;50.932;6.934;2022-09-09T15:43:44;1.87;;;1.27;;
12812;SDS011;6471;50.932;6.934;2022-09-09T15:48:43;1.20;;;1.10;;
12812;SDS011;6471;50.932;6.934;2022-09-09T15:51:10;3.00;;;1.53;;
12812;SDS011;6471;50.932;6.934;2022-09-09T15:56:30;6.40;;;4.93;;
12812;SDS011;6471;50.932;6.934;2022-09-09T15:59:08;4.37;;;3.00;;
12812;SDS011;6471;50.932;6.934;2022-09-09T16:01:35;5.40;;;3.40;;
12812;SDS011;6471;50.932;6.934;2022-09-09T16:04:09;6.07;;;3.93;;
12812;SDS011;6471;50.932;6.934;2022-09-09T16:12:46;1.90;;;1.20;;
12812;SDS011;6471;50.932;6.934;2022-09-09T16:15:14;2.07;;;1.03;;
12812;SDS011;6471;50.932;6.934;2022-09-09T16:17:41;1.93;;;1.00;;
12812;SDS011;6471;50.932;6.934;2022-09-09T16:20:14;2.20;;;1.10;;
12812;SDS011;6471;50.932;6.934;2022-09-09T16:34:00;2.40;;;2.00;;
12812;SDS011;6471;50.932;6.934;2022-09-09T16:36:31;2.17;;;1.67;;
12812;SDS011;6471;50.932;6.934;2022-09-09T16:39:09;1.97;;;1.43;;
12812;SDS011;6471;50.932;6.934;2022-09-09T16:41:57;1.77;;;1.30;;
12812;SDS011;6471;50.932;6.934;2022-09-09T16:44:58;1.40;;;1.10;;
12812;SDS011;6471;50.932;6.934;2022-09-09T16:56:14;1.40;;;1.20;;
12812;SDS011;6471;50.932;6.934;2022-09-09T17:06:31;2.13;;;1.50;;
12812;SDS011;6471;50.932;6.934;2022-09-09T17:28:04;3.33;;;2.30;;
12812;SDS011;6471;50.932;6.934;2022-09-09T17:30:33;3.63;;;2.90;;
12812;SDS011;6471;50.932;6.934;2022-09-09T17:33:02;4.33;;;3.07;;
12812;SDS011;6471;50.932;6.934;2022-09-09T17:35:30;3.70;;;2.87;;
12812;SDS011;6471;50.932;6.934;2022-09-09T17:38:06;3.20;;;2.60;;
12812;SDS011;6471;50.932;6.934;2022-09-09T17:43:27;3.57;;;2.20;;
12812;SDS011;6471;50.932;6.934;2022-09-09T17:45:53;3.97;;;2.50;;
12812;SDS011;6471;50.932;6.934;2022-09-09T17:48:19;3.13;;;2.20;;
12812;SDS011;6471;50.932;6.934;2022-09-09T17:50:55;2.83;;;2.33;;
12812;SDS011;6471;50.932;6.934;2022-09-09T17:53:23;4.20;;;2.60;;
12812;SDS011;6471;50.932;6.934;2022-09-09T17:55:49;2.97;;;2.17;;
12812;SDS011;6471;50.932;6.934;2022-09-09T17:58:15;3.53;;;2.37;;
12812;SDS011;6471;50.932;6.934;2022-09-09T18:00:41;3.37;;;2.20;;
12812;SDS011;6471;50.932;6.934;2022-09-09T18:03:07;4.60;;;3.03;;
12812;SDS011;6471;50.932;6.934;2022-09-09T18:05:34;9.17;;;6.70;;
12812;SDS011;6471;50.932;6.934;2022-09-09T18:08:00;8.80;;;5.40;;
12812;SDS011;6471;50.932;6.934;2022-09-09T18:10:49;6.20;;;3.90;;
12812;SDS011;6471;50.932;6.934;2022-09-09T18:13:27;4.07;;;2.93;;
12812;SDS011;6471;50.932;6.934;2022-09-09T18:16:00;3.25;;;2.50;;
12812;SDS011;6471;50.932;6.934;2022-09-09T18:21:59;4.43;;;2.97;;
12812;SDS011;6471;50.932;6.934;2022-09-09T18:24:26;4.50;;;2.53;;
12812;SDS011;6471;50.932;6.934;2022-09-09T18:26:52;4.13;;;2.60;;
12812;SDS011;6471;50.932;6.934;2022-09-09T18:29:19;4.27;;;2.60;;
12812;SDS011;6471;50.932;6.934;2022-09-09T18:31:48;4.70;;;2.47;;
12812;SDS011;6471;50.932;6.934;2022-09-09T18:34:17;5.30;;;2.50;;
12812;SDS011;6471;50.932;6.934;2022-09-09T18:36:47;2.80;;;2.10;;
12812;SDS011;6471;50.932;6.934;2022-09-09T18:39:15;2.43;;;1.80;;
12812;SDS011;6471;50.932;6.934;2022-09-09T18:44:50;4.13;;;2.33;;
12812;SDS011;6471;50.932;6.934;2022-09-09T18:47:21;3.40;;;2.50;;
12812;SDS011;6471;50.932;6.934;2022-09-09T18:49:56;5.70;;;3.20;;
12812;SDS011;6471;50.932;6.934;2022-09-09T18:52:38;4.33;;;2.30;;
12812;SDS011;6471;50.932;6.934;2022-09-09T18:55:30;3.57;;;2.40;;
12812;SDS011;6471;50.932;6.934;2022-09-09T18:58:02;3.93;;;2.73;;
12812;SDS011;6471;50.932;6.934;2022-09-09T19:07:05;9.53;;;6.50;;
12812;SDS011;6471;50.932;6.934;2022-09-09T19:09:31;10.70;;;6.67;;
12812;SDS011;6471;50.932;6.934;2022-09-09T19:12:16;7.77;;;5.17;;
12812;SDS011;6471;50.932;6.934;2022-09-09T19:15:02;5.53;;;3.37;;
12812;SDS011;6471;50.932;6.934;2022-09-09T19:17:30;4.97;;;2.83;;
12812;SDS011;6471;50.932;6.934;2022-09-09T19:22:50;3.03;;;2.40;;
12812;SDS011;6471;50.932;6.934;2022-09-09T19:37:39;6.10;;;4.30;;
12812;SDS011;6471;50.932;6.934;2022-09-09T19:40:08;5.53;;;3.67;;
12812;SDS011;6471;50.932;6.934;2022-09-09T19:42:35;6.07;;;3.30;;
12812;SDS011;6471;50.932;6.934;2022-09-09T19:45:04;4.63;;;2.70;;
12812;SDS011;6471;50.932;6.934;2022-09-09T19:47:32;4.17;;;2.83;;
12812;SDS011;6471;50.932;6.934;2022-09-09T19:49:58;4.13;;;3.00;;
12812;SDS011;6471;50.932;6.934;2022-09-09T19:52:24;4.30;;;3.60;;
12812;SDS011;6471;50.932;6.934;2022-09-09T19:54:51;5.20;;;3.80;;
12812;SDS011;6471;50.932;6.934;2022-09-09T19:57:21;4.73;;;3.60;;
12812;SDS011;6471;50.932;6.934;2022-09-09T19:59:48;5.53;;;3.83;;
12812;SDS011;6471;50.932;6.934;2022-09-09T20:02:19;4.60;;;3.47;;
12812;SDS011;6471;50.932;6.934;2022-09-09T20:04:57;3.57;;;2.60;;
12812;SDS011;6471;50.932;6.934;2022-09-09T20:07:23;3.03;;;2.53;;
12812;SDS011;6471;50.932;6.934;2022-09-09T20:09:49;3.07;;;2.30;;
12812;SDS011;6471;50.932;6.934;2022-09-09T20:12:16;2.77;;;2.10;;
12812;SDS011;6471;50.932;6.934;2022-09-09T20:14:42;3.50;;;2.30;;
12812;SDS011;6471;50.932;6.934;2022-09-09T20:17:08;3.00;;;2.10;;
12812;SDS011;6471;50.932;6.934;2022-09-09T20:19:35;3.93;;;2.37;;
12812;SDS011;6471;50.932;6.934;2022-09-09T20:22:02;6.13;;;2.30;;
12812;SDS011;6471;50.932;6.934;2022-09-09T20:24:28;3.53;;;2.17;;
12812;SDS011;6471;50.932;6.934;2022-09-09T20:26:54;5.30;;;2.50;;
12812;SDS011;6471;50.932;6.934;2022-09-09T20:29:20;5.10;;;3.40;;
12812;SDS011;6471;50.932;6.934;2022-09-09T20:31:47;3.80;;;2.67;;
12812;SDS011;6471;50.932;6.934;2022-09-09T20:34:14;3.30;;;2.50;;
12812;SDS011;6471;50.932;6.934;2022-09-09T20:36:44;3.30;;;2.53;;
12812;SDS011;6471;50.932;6.934;2022-09-09T20:39:11;6.87;;;4.57;;
12812;SDS011;6471;50.932;6.934;2022-09-09T20:41:39;5.80;;;4.30;;
12812;SDS011;6471;50.932;6.934;2022-09-09T20:44:07;6.30;;;4.93;;
12812;SDS011;6471;50.932;6.934;2022-09-09T20:46:35;5.83;;;4.53;;
12812;SDS011;6471;50.932;6.934;2022-09-09T20:49:03;5.13;;;3.80;;
12812;SDS011;6471;50.932;6.934;2022-09-09T20:51:30;5.33;;;3.97;;
12812;SDS011;6471;50.932;6.934;2022-09-09T20:54:01;4.30;;;3.60;;
12812;SDS011;6471;50.932;6.934;2022-09-09T20:56:29;5.20;;;3.90;;
12812;SDS011;6471;50.932;6.934;2022-09-09T20:58:56;4.27;;;3.43;;
12812;SDS011;6471;50.932;6.934;2022-09-09T21:01:23;5.13;;;3.80;;
12812;SDS011;6471;50.932;6.934;2022-09-09T21:03:49;5.53;;;4.27;;
12812;SDS011;6471;50.932;6.934;2022-09-09T21:06:15;6.47;;;4.50;;
12812;SDS011;6471;50.932;6.934;2022-09-09T21:08:41;5.93;;;4.27;;
12812;SDS011;6471;50.932;6.934;2022-09-09T21:11:08;5.33;;;3.80;;
12812;SDS011;6471;50.932;6.934;2022-09-09T21:13:35;5.53;;;3.80;;
12812;SDS011;6471;50.932;6.934;2022-09-09T21:16:02;4.20;;;3.57;;
12812;SDS011;6471;50.932;6.934;2022-09-09T21:18:28;5.03;;;3.40;;
12812;SDS011;6471;50.932;6.934;2022-09-09T21:20:55;6.73;;;5.17;;
12812;SDS011;6471;50.932;6.934;2022-09-09T21:23:21;8.10;;;6.13;;
12812;SDS011;6471;50.932;6.934;2022-09-09T21:28:39;6.73;;;4.87;;
12812;SDS011;6471;50.932;6.934;2022-09-09T21:31:06;5.50;;;4.00;;
12812;SDS011;6471;50.932;6.934;2022-09-09T21:33:33;6.00;;;4.40;;
12812;SDS011;6471;50.932;6.934;2022-09-09T21:36:03;6.97;;;5.07;;
12812;SDS011;6471;50.932;6.934;2022-09-09T21:38:29;5.63;;;4.57;;
12812;SDS011;6471;50.932;6.934;2022-09-09T21:40:55;6.70;;;5.00;;
12812;SDS011;6471;50.932;6.934;2022-09-09T21:43:21;7.23;;;5.57;;
12812;SDS011;6471;50.932;6.934;2022-09-09T21:45:53;8.03;;;5.97;;
12812;SDS011;6471;50.932;6.934;2022-09-09T21:48:21;8.20;;;5.37;;
12812;SDS011;6471;50.932;6.934;2022-09-09T21:50:51;7.73;;;5.33;;
12812;SDS011;6471;50.932;6.934;2022-09-09T21:53:18;5.80;;;4.30;;
12812;SDS011;6471;50.932;6.934;2022-09-09T21:55:46;5.47;;;4.17;;
12812;SDS011;6471;50.932;6.934;2022-09-09T21:58:15;4.83;;;3.40;;
12812;SDS011;6471;50.932;6.934;2022-09-09T22:00:45;4.73;;;3.37;;
12812;SDS011;6471;50.932;6.934;2022-09-09T22:03:12;5.47;;;3.30;;
12812;SDS011;6471;50.932;6.934;2022-09-09T22:05:39;5.07;;;3.50;;
12812;SDS011;6471;50.932;6.934;2022-09-09T22:08:06;3.90;;;3.30;;
12812;SDS011;6471;50.932;6.934;2022-09-09T22:10:33;4.17;;;2.73;;
12812;SDS011;6471;50.932;6.934;2022-09-09T22:13:06;4.50;;;2.80;;
12812;SDS011;6471;50.932;6.934;2022-09-09T22:15:33;3.40;;;2.43;;
12812;SDS011;6471;50.932;6.934;2022-09-09T22:18:03;2.63;;;2.10;;
12812;SDS011;6471;50.932;6.934;2022-09-09T22:20:30;2.60;;;2.00;;
12812;SDS011;6471;50.932;6.934;2022-09-09T22:22:59;3.37;;;2.43;;
12812;SDS011;6471;50.932;6.934;2022-09-09T22:25:25;3.00;;;1.90;;
12812;SDS011;6471;50.932;6.934;2022-09-09T22:27:51;3.27;;;2.00;;
12812;SDS011;6471;50.932;6.934;2022-09-09T22:30:20;4.87;;;2.90;;
12812;SDS011;6471;50.932;6.934;2022-09-09T22:32:46;5.20;;;3.83;;
12812;SDS011;6471;50.932;6.934;2022-09-09T22:35:12;8.17;;;4.37;;
12812;SDS011;6471;50.932;6.934;2022-09-09T22:37:38;5.43;;;3.80;;
12812;SDS011;6471;50.932;6.934;2022-09-09T22:40:07;4.73;;;3.00;;
12812;SDS011;6471;50.932;6.934;2022-09-09T22:42:34;6.23;;;3.03;;
12812;SDS011;6471;50.932;6.934;2022-09-09T22:45:00;4.67;;;2.57;;
12812;SDS011;6471;50.932;6.934;2022-09-09T22:47:35;4.10;;;2.53;;
12812;SDS011;6471;50.932;6.934;2022-09-09T22:50:03;4.40;;;2.10;;
12812;SDS011;6471;50.932;6.934;2022-09-09T22:52:35;3.40;;;2.23;;
12812;SDS011;6471;50.932;6.934;2022-09-09T22:55:04;3.83;;;2.20;;
12812;SDS011;6471;50.932;6.934;2022-09-09T22:57:30;2.33;;;1.70;;
12812;SDS011;6471;50.932;6.934;2022-09-09T22:59:57;3.10;;;1.80;;
12812;SDS011;6471;50.932;6.934;2022-09-09T23:02:26;3.20;;;1.60;;
12812;SDS011;6471;50.932;6.934;2022-09-09T23:04:57;2.83;;;1.77;;
12812;SDS011;6471;50.932;6.934;2022-09-09T23:07:28;3.20;;;1.63;;
12812;SDS011;6471;50.932;6.934;2022-09-09T23:10:10;3.27;;;2.07;;
12812;SDS011;6471;50.932;6.934;2022-09-09T23:12:36;4.20;;;2.50;;
12812;SDS011;6471;50.932;6.934;2022-09-09T23:15:07;3.37;;;1.90;;
12812;SDS011;6471;50.932;6.934;2022-09-09T23:17:48;4.70;;;1.93;;
12812;SDS011;6471;50.932;6.934;2022-09-09T23:23:26;2.83;;;1.63;;
12812;SDS011;6471;50.932;6.934;2022-09-09T23:28:59;3.27;;;2.17;;
12812;SDS011;6471;50.932;6.934;2022-09-09T23:31:30;2.67;;;1.97;;
12812;SDS011;6471;50.932;6.934;2022-09-09T23:40:21;4.27;;;2.70;;
12812;SDS011;6471;50.932;6.934;2022-09-09T23:42:48;3.73;;;2.10;;
12812;SDS011;6471;50.932;6.934;2022-09-09T23:45:16;3.97;;;2.60;;
12812;SDS011;6471;50.932;6.934;2022-09-09T23:47:45;2.80;;;2.20;;
12812;SDS011;6471;50.932;6.934;2022-09-09T23:50:20;3.30;;;1.87;;
12812;SDS011;6471;50.932;6.934;2022-09-09T23:55:53;1.63;;;1.40;;
